sensor_id;sensor_type;location;lat;lon;timestamp;pressure;altitude;pressure_sealevel;temperature;humidity
37778;BME280;23615;51.506;7.678;2023-01-28T00:01:13;101216.06;;;2.33;92.01
37778;BME280;23615;51.506;7.678;2023-01-28T00:03:39;101215.63;;;2.37;91.62
37778;BME280;23615;51.506;7.678;2023-01-28T00:06:07;101219.53;;;2.33;91.89
37778;BME280;23615;51.506;7.678;2023-01-28T00:08:33;101222.56;;;2.38;91.77
37778;BME280;23615;51.506;7.678;2023-01-28T00:11:00;101224.09;;;2.31;91.35
37778;BME280;23615;51.506;7.678;2023-01-28T00:13:26;101222.72;;;2.27;92.01
37778;BME280;23615;51.506;7.678;2023-01-28T00:16:00;101224.53;;;2.27;91.39
37778;BME280;23615;51.506;7.678;2023-01-28T00:18:26;101221.06;;;2.26;91.86
37778;BME280;23615;51.506;7.678;2023-01-28T00:20:56;101214.00;;;2.27;91.95
37778;BME280;23615;51.506;7.678;2023-01-28T00:23:22;101209.28;;;2.30;91.90
37778;BME280;23615;51.506;7.678;2023-01-28T00:25:48;101216.34;;;2.30;92.27
37778;BME280;23615;51.506;7.678;2023-01-28T00:28:13;101211.06;;;2.30;92.23
37778;BME280;23615;51.506;7.678;2023-01-28T00:30:38;101211.22;;;2.28;92.71
37778;BME280;23615;51.506;7.678;2023-01-28T00:33:03;101210.09;;;2.31;92.32
37778;BME280;23615;51.506;7.678;2023-01-28T00:35:29;101210.94;;;2.31;92.29
37778;BME280;23615;51.506;7.678;2023-01-28T00:37:54;101210.25;;;2.29;92.30
37778;BME280;23615;51.506;7.678;2023-01-28T00:40:19;101209.56;;;2.27;92.35
37778;BME280;23615;51.506;7.678;2023-01-28T00:42:45;101207.91;;;2.26;92.60
37778;BME280;23615;51.506;7.678;2023-01-28T00:45:10;101214.84;;;2.27;92.68
37778;BME280;23615;51.506;7.678;2023-01-28T00:47:35;101211.22;;;2.28;92.72
37778;BME280;23615;51.506;7.678;2023-01-28T00:50:01;101209.56;;;2.27;92.21
37778;BME280;23615;51.506;7.678;2023-01-28T00:52:27;101212.34;;;2.25;92.10
37778;BME280;23615;51.506;7.678;2023-01-28T00:54:52;101215.09;;;2.24;92.04
37778;BME280;23615;51.506;7.678;2023-01-28T00:57:18;101219.69;;;2.22;91.62
37778;BME280;23615;51.506;7.678;2023-01-28T00:59:43;101227.44;;;2.23;91.52
37778;BME280;23615;51.506;7.678;2023-01-28T01:02:09;101222.03;;;2.25;91.68
37778;BME280;23615;51.506;7.678;2023-01-28T01:04:38;101232.97;;;2.20;91.47
37778;BME280;23615;51.506;7.678;2023-01-28T01:07:03;101231.03;;;2.22;91.21
37778;BME280;23615;51.506;7.678;2023-01-28T01:09:29;101232.00;;;2.21;91.40
37778;BME280;23615;51.506;7.678;2023-01-28T01:11:54;101225.06;;;2.20;91.69
37778;BME280;23615;51.506;7.678;2023-01-28T01:14:19;101219.53;;;2.23;91.49
37778;BME280;23615;51.506;7.678;2023-01-28T01:16:44;101216.06;;;2.23;91.03
37778;BME280;23615;51.506;7.678;2023-01-28T01:19:10;101217.31;;;2.19;91.45
37778;BME280;23615;51.506;7.678;2023-01-28T01:21:36;101216.34;;;2.20;91.57
37778;BME280;23615;51.506;7.678;2023-01-28T01:24:01;101216.22;;;2.21;91.01
37778;BME280;23615;51.506;7.678;2023-01-28T01:26:26;101219.94;;;2.19;91.66
37778;BME280;23615;51.506;7.678;2023-01-28T01:28:52;101213.03;;;2.18;91.70
37778;BME280;23615;51.506;7.678;2023-01-28T01:31:19;101227.31;;;2.25;91.42
37778;BME280;23615;51.506;7.678;2023-01-28T01:33:46;101225.38;;;2.17;91.42
37778;BME280;23615;51.506;7.678;2023-01-28T01:36:14;101229.66;;;2.18;91.63
37778;BME280;23615;51.506;7.678;2023-01-28T01:38:40;101232.44;;;2.17;91.69
37778;BME280;23615;51.506;7.678;2023-01-28T01:41:07;101225.06;;;2.20;91.69
37778;BME280;23615;51.506;7.678;2023-01-28T01:44:05;101215.53;;;2.10;92.07
37778;BME280;23615;51.506;7.678;2023-01-28T01:49:02;101233.41;;;2.06;91.64
37778;BME280;23615;51.506;7.678;2023-01-28T01:51:32;101231.88;;;2.04;91.19
37778;BME280;23615;51.506;7.678;2023-01-28T01:53:59;101235.91;;;2.08;91.14
37778;BME280;23615;51.506;7.678;2023-01-28T01:56:30;101241.00;;;2.19;89.60
37778;BME280;23615;51.506;7.678;2023-01-28T01:58:57;101236.88;;;2.16;88.68
37778;BME280;23615;51.506;7.678;2023-01-28T02:01:25;101235.59;;;2.11;88.37
37778;BME280;23615;51.506;7.678;2023-01-28T02:04:11;101243.50;;;2.01;88.22
37778;BME280;23615;51.506;7.678;2023-01-28T02:06:39;101240.59;;;1.95;88.80
37778;BME280;23615;51.506;7.678;2023-01-28T02:09:27;101232.31;;;1.90;89.41
37778;BME280;23615;51.506;7.678;2023-01-28T02:11:55;101241.16;;;1.79;88.71
37778;BME280;23615;51.506;7.678;2023-01-28T02:14:25;101236.44;;;1.82;88.99
37778;BME280;23615;51.506;7.678;2023-01-28T02:16:52;101242.13;;;1.87;89.00
37778;BME280;23615;51.506;7.678;2023-01-28T02:19:19;101244.50;;;1.91;89.05
37778;BME280;23615;51.506;7.678;2023-01-28T02:22:00;101241.69;;;1.82;89.34
37778;BME280;23615;51.506;7.678;2023-01-28T02:24:37;101247.38;;;1.87;89.38
37778;BME280;23615;51.506;7.678;2023-01-28T02:27:32;101245.72;;;2.06;87.55
37778;BME280;23615;51.506;7.678;2023-01-28T02:30:10;101251.97;;;2.05;86.32
37778;BME280;23615;51.506;7.678;2023-01-28T02:32:59;101250.41;;;1.93;86.40
37778;BME280;23615;51.506;7.678;2023-01-28T02:38:20;101252.38;;;1.81;87.44
37778;BME280;23615;51.506;7.678;2023-01-28T02:40:52;101265.09;;;1.85;88.02
37778;BME280;23615;51.506;7.678;2023-01-28T02:43:32;101264.97;;;1.97;86.76
37778;BME280;23615;51.506;7.678;2023-01-28T02:45:58;101266.88;;;1.75;86.59
37778;BME280;23615;51.506;7.678;2023-01-28T02:48:44;101257.19;;;1.76;86.56
37778;BME280;23615;51.506;7.678;2023-01-28T02:51:28;101256.78;;;1.71;86.80
37778;BME280;23615;51.506;7.678;2023-01-28T02:54:05;101262.31;;;1.68;87.59
37778;BME280;23615;51.506;7.678;2023-01-28T02:57:01;101262.75;;;1.73;87.02
37778;BME280;23615;51.506;7.678;2023-01-28T02:59:43;101256.66;;;1.82;86.47
37778;BME280;23615;51.506;7.678;2023-01-28T03:02:30;101264.69;;;1.71;86.48
37778;BME280;23615;51.506;7.678;2023-01-28T03:05:07;101271.63;;;1.81;85.83
37778;BME280;23615;51.506;7.678;2023-01-28T03:07:37;101254.84;;;1.63;86.32
37778;BME280;23615;51.506;7.678;2023-01-28T03:10:05;101258.13;;;1.65;87.01
37778;BME280;23615;51.506;7.678;2023-01-28T03:12:32;101253.56;;;1.58;87.27
37778;BME280;23615;51.506;7.678;2023-01-28T03:21:18;101250.94;;;1.58;87.82
37778;BME280;23615;51.506;7.678;2023-01-28T03:24:05;101248.44;;;1.56;88.29
37778;BME280;23615;51.506;7.678;2023-01-28T03:26:55;101244.44;;;1.62;88.66
37778;BME280;23615;51.506;7.678;2023-01-28T03:29:42;101238.50;;;1.60;88.54
37778;BME280;23615;51.506;7.678;2023-01-28T03:32:28;101226.88;;;1.62;88.85
37778;BME280;23615;51.506;7.678;2023-01-28T03:35:15;101234.47;;;1.65;88.61
37778;BME280;23615;51.506;7.678;2023-01-28T03:38:00;101238.50;;;1.60;88.37
37778;BME280;23615;51.506;7.678;2023-01-28T03:40:55;101242.78;;;1.61;88.68
37778;BME280;23615;51.506;7.678;2023-01-28T03:43:21;101245.28;;;1.62;88.30
37778;BME280;23615;51.506;7.678;2023-01-28T03:45:47;101246.94;;;1.63;88.26
37778;BME280;23615;51.506;7.678;2023-01-28T03:48:16;101241.97;;;1.70;88.09
37778;BME280;23615;51.506;7.678;2023-01-28T03:50:42;101246.97;;;1.73;87.95
37778;BME280;23615;51.506;7.678;2023-01-28T03:53:07;101251.22;;;1.74;88.14
37778;BME280;23615;51.506;7.678;2023-01-28T03:55:42;101247.63;;;1.65;88.20
37778;BME280;23615;51.506;7.678;2023-01-28T03:58:09;101254.53;;;1.66;88.45
37778;BME280;23615;51.506;7.678;2023-01-28T04:00:34;101261.47;;;1.67;88.60
37778;BME280;23615;51.506;7.678;2023-01-28T04:03:10;101256.63;;;1.63;88.65
37778;BME280;23615;51.506;7.678;2023-01-28T04:06:00;101258.84;;;1.67;88.56
37778;BME280;23615;51.506;7.678;2023-01-28T04:08:25;101263.13;;;1.68;88.63
37778;BME280;23615;51.506;7.678;2023-01-28T04:10:50;101252.34;;;1.62;88.45
37778;BME280;23615;51.506;7.678;2023-01-28T04:13:16;101259.09;;;1.64;88.47
37778;BME280;23615;51.506;7.678;2023-01-28T04:15:42;101258.56;;;1.61;88.26
37778;BME280;23615;51.506;7.678;2023-01-28T04:18:08;101258.31;;;1.64;88.48
37778;BME280;23615;51.506;7.678;2023-01-28T04:20:33;101257.72;;;1.60;88.49
37778;BME280;23615;51.506;7.678;2023-01-28T04:22:59;101251.63;;;1.60;88.56
37778;BME280;23615;51.506;7.678;2023-01-28T04:25:24;101265.19;;;1.65;88.32
37778;BME280;23615;51.506;7.678;2023-01-28T04:27:50;101258.69;;;1.59;88.31
37778;BME280;23615;51.506;7.678;2023-01-28T04:30:15;101262.16;;;1.60;88.37
37778;BME280;23615;51.506;7.678;2023-01-28T04:32:41;101264.38;;;1.64;88.35
37778;BME280;23615;51.506;7.678;2023-01-28T04:35:06;101259.81;;;1.66;87.93
37778;BME280;23615;51.506;7.678;2023-01-28T04:37:32;101268.25;;;1.60;87.94
37778;BME280;23615;51.506;7.678;2023-01-28T04:39:57;101272.69;;;1.69;87.62
37778;BME280;23615;51.506;7.678;2023-01-28T04:42:22;101268.00;;;1.63;87.60
37778;BME280;23615;51.506;7.678;2023-01-28T04:44:47;101277.09;;;1.59;87.67
37778;BME280;23615;51.506;7.678;2023-01-28T04:47:13;101275.44;;;1.58;87.74
37778;BME280;23615;51.506;7.678;2023-01-28T04:49:38;101274.59;;;1.58;88.23
37778;BME280;23615;51.506;7.678;2023-01-28T04:52:04;101288.84;;;1.55;88.09
37778;BME280;23615;51.506;7.678;2023-01-28T04:54:29;101290.66;;;1.55;88.16
37778;BME280;23615;51.506;7.678;2023-01-28T04:56:54;101289.38;;;1.49;87.55
37778;BME280;23615;51.506;7.678;2023-01-28T04:59:20;101290.34;;;1.48;87.46
37778;BME280;23615;51.506;7.678;2023-01-28T05:01:45;101280.53;;;1.50;87.78
37778;BME280;23615;51.506;7.678;2023-01-28T05:04:11;101283.75;;;1.54;87.13
37778;BME280;23615;51.506;7.678;2023-01-28T05:06:36;101285.09;;;1.48;87.24
37778;BME280;23615;51.506;7.678;2023-01-28T05:09:01;101277.03;;;1.40;87.10
37778;BME280;23615;51.506;7.678;2023-01-28T05:11:27;101288.41;;;1.40;87.59
37778;BME280;23615;51.506;7.678;2023-01-28T05:13:53;101285.63;;;1.42;86.68
37778;BME280;23615;51.506;7.678;2023-01-28T05:16:19;101283.13;;;1.40;86.68
37778;BME280;23615;51.506;7.678;2023-01-28T05:18:44;101277.03;;;1.40;86.81
37778;BME280;23615;51.506;7.678;2023-01-28T05:21:12;101278.72;;;1.41;86.97
37778;BME280;23615;51.506;7.678;2023-01-28T05:23:38;101274.16;;;1.43;86.87
37778;BME280;23615;51.506;7.678;2023-01-28T05:26:03;101275.38;;;1.39;87.15
37778;BME280;23615;51.506;7.678;2023-01-28T05:28:28;101283.41;;;1.47;86.63
37778;BME280;23615;51.506;7.678;2023-01-28T05:30:54;101280.81;;;1.57;85.46
37778;BME280;23615;51.506;7.678;2023-01-28T05:33:19;101280.53;;;1.50;83.98
37778;BME280;23615;51.506;7.678;2023-01-28T05:35:45;101277.75;;;1.42;84.12
37778;BME280;23615;51.506;7.678;2023-01-28T05:38:10;101280.03;;;1.26;84.55
37778;BME280;23615;51.506;7.678;2023-01-28T05:40:35;101286.28;;;1.25;85.49
37778;BME280;23615;51.506;7.678;2023-01-28T05:43:00;101285.13;;;1.18;85.85
37778;BME280;23615;51.506;7.678;2023-01-28T05:45:26;101281.72;;;1.27;86.23
37778;BME280;23615;51.506;7.678;2023-01-28T05:47:51;101286.81;;;1.28;85.54
37778;BME280;23615;51.506;7.678;2023-01-28T05:50:16;101294.16;;;1.25;86.52
37778;BME280;23615;51.506;7.678;2023-01-28T05:52:42;101290.03;;;1.32;86.86
37778;BME280;23615;51.506;7.678;2023-01-28T05:55:08;101297.13;;;1.41;85.88
37778;BME280;23615;51.506;7.678;2023-01-28T05:57:33;101305.59;;;1.44;85.09
37778;BME280;23615;51.506;7.678;2023-01-28T05:59:58;101301.13;;;1.35;84.28
37778;BME280;23615;51.506;7.678;2023-01-28T06:02:24;101312.00;;;1.31;85.03
37778;BME280;23615;51.506;7.678;2023-01-28T06:04:49;101317.81;;;1.25;84.79
37778;BME280;23615;51.506;7.678;2023-01-28T06:07:14;101305.88;;;1.21;85.52
37778;BME280;23615;51.506;7.678;2023-01-28T06:09:43;101313.63;;;1.22;85.21
37778;BME280;23615;51.506;7.678;2023-01-28T06:12:09;101297.69;;;1.14;85.63
37778;BME280;23615;51.506;7.678;2023-01-28T06:14:34;101304.38;;;1.28;85.63
37778;BME280;23615;51.506;7.678;2023-01-28T06:16:59;101309.38;;;1.31;83.42
37778;BME280;23615;51.506;7.678;2023-01-28T06:19:25;101306.88;;;1.29;83.29
37778;BME280;23615;51.506;7.678;2023-01-28T06:21:50;101303.53;;;1.18;83.80
37778;BME280;23615;51.506;7.678;2023-01-28T06:24:15;101309.13;;;1.03;84.05
37778;BME280;23615;51.506;7.678;2023-01-28T06:26:40;101308.41;;;1.01;85.12
37778;BME280;23615;51.506;7.678;2023-01-28T06:29:06;101308.91;;;1.16;84.76
37778;BME280;23615;51.506;7.678;2023-01-28T06:31:31;101304.00;;;1.02;84.63
37778;BME280;23615;51.506;7.678;2023-01-28T06:33:57;101304.69;;;1.04;84.92
37778;BME280;23615;51.506;7.678;2023-01-28T06:36:22;101308.16;;;1.04;84.85
37778;BME280;23615;51.506;7.678;2023-01-28T06:38:47;101319.69;;;1.13;84.99
37778;BME280;23615;51.506;7.678;2023-01-28T06:41:12;101314.00;;;1.08;84.93
37778;BME280;23615;51.506;7.678;2023-01-28T06:43:38;101306.63;;;1.02;85.63
37778;BME280;23615;51.506;7.678;2023-01-28T06:46:03;101305.22;;;0.98;85.74
37778;BME280;23615;51.506;7.678;2023-01-28T06:48:28;101303.94;;;0.92;85.62
37778;BME280;23615;51.506;7.678;2023-01-28T06:50:54;101312.66;;;0.93;86.01
37778;BME280;23615;51.506;7.678;2023-01-28T06:53:19;101310.84;;;0.93;86.00
37778;BME280;23615;51.506;7.678;2023-01-28T06:55:45;101316.09;;;0.93;86.39
37778;BME280;23615;51.506;7.678;2023-01-28T06:58:10;101315.34;;;1.02;86.55
37778;BME280;23615;51.506;7.678;2023-01-28T07:00:36;101309.66;;;0.97;86.98
37778;BME280;23615;51.506;7.678;2023-01-28T07:03:02;101309.78;;;0.96;87.01
37778;BME280;23615;51.506;7.678;2023-01-28T07:05:27;101318.09;;;1.01;87.09
37778;BME280;23615;51.506;7.678;2023-01-28T07:07:53;101308.16;;;1.04;87.22
37778;BME280;23615;51.506;7.678;2023-01-28T07:10:18;101311.38;;;1.08;87.72
37778;BME280;23615;51.506;7.678;2023-01-28T07:12:43;101297.69;;;1.14;87.23
37778;BME280;23615;51.506;7.678;2023-01-28T07:15:09;101300.31;;;1.14;87.36
37778;BME280;23615;51.506;7.678;2023-01-28T07:17:38;101295.44;;;1.09;86.79
37778;BME280;23615;51.506;7.678;2023-01-28T07:20:05;101298.06;;;1.09;86.87
37778;BME280;23615;51.506;7.678;2023-01-28T07:22:31;101298.41;;;1.16;86.38
37778;BME280;23615;51.506;7.678;2023-01-28T07:24:56;101299.25;;;1.17;85.87
37778;BME280;23615;51.506;7.678;2023-01-28T07:27:23;101300.44;;;1.12;85.63
37778;BME280;23615;51.506;7.678;2023-01-28T07:29:48;101313.84;;;1.09;85.18
37778;BME280;23615;51.506;7.678;2023-01-28T07:32:13;101309.41;;;1.10;85.38
37778;BME280;23615;51.506;7.678;2023-01-28T07:34:38;101305.16;;;1.09;85.75
37778;BME280;23615;51.506;7.678;2023-01-28T07:37:07;101297.78;;;1.03;85.83
37778;BME280;23615;51.506;7.678;2023-01-28T07:39:32;101308.03;;;1.06;86.34
37778;BME280;23615;51.506;7.678;2023-01-28T07:41:58;101312.31;;;1.07;86.22
37778;BME280;23615;51.506;7.678;2023-01-28T07:44:23;101303.31;;;1.09;86.35
37778;BME280;23615;51.506;7.678;2023-01-28T07:46:49;101311.22;;;1.09;86.53
37778;BME280;23615;51.506;7.678;2023-01-28T07:49:14;101313.59;;;1.12;86.40
37778;BME280;23615;51.506;7.678;2023-01-28T07:51:39;101308.75;;;1.08;86.07
37778;BME280;23615;51.506;7.678;2023-01-28T07:54:04;101316.63;;;1.08;86.13
37778;BME280;23615;51.506;7.678;2023-01-28T07:56:30;101316.63;;;1.08;86.54
37778;BME280;23615;51.506;7.678;2023-01-28T07:58:55;101321.03;;;1.07;86.76
37778;BME280;23615;51.506;7.678;2023-01-28T08:01:21;101324.09;;;1.12;86.71
37778;BME280;23615;51.506;7.678;2023-01-28T08:03:46;101319.69;;;1.13;87.02
37778;BME280;23615;51.506;7.678;2023-01-28T08:06:11;101325.91;;;1.12;86.48
37778;BME280;23615;51.506;7.678;2023-01-28T08:08:37;101317.47;;;1.08;86.48
37778;BME280;23615;51.506;7.678;2023-01-28T08:11:08;101329.75;;;1.08;86.59
37778;BME280;23615;51.506;7.678;2023-01-28T08:13:35;101329.59;;;1.09;86.64
37778;BME280;23615;51.506;7.678;2023-01-28T08:16:00;101326.47;;;1.16;86.75
37778;BME280;23615;51.506;7.678;2023-01-28T08:18:25;101335.06;;;1.18;86.66
37778;BME280;23615;51.506;7.678;2023-01-28T08:20:55;101350.00;;;1.17;86.90
37778;BME280;23615;51.506;7.678;2023-01-28T08:23:20;101351.41;;;1.21;87.00
37778;BME280;23615;51.506;7.678;2023-01-28T08:25:46;101369.66;;;1.23;87.14
37778;BME280;23615;51.506;7.678;2023-01-28T08:28:13;101369.41;;;1.26;86.91
37778;BME280;23615;51.506;7.678;2023-01-28T08:30:38;101362.31;;;1.17;86.38
37778;BME280;23615;51.506;7.678;2023-01-28T08:33:06;101360.94;;;1.22;86.47
37778;BME280;23615;51.506;7.678;2023-01-28T08:35:32;101357.50;;;1.22;86.31
37778;BME280;23615;51.506;7.678;2023-01-28T08:37:59;101365.13;;;1.25;86.28
37778;BME280;23615;51.506;7.678;2023-01-28T08:40:25;101367.75;;;1.25;86.21
37778;BME280;23615;51.506;7.678;2023-01-28T08:42:51;101375.09;;;1.31;85.72
37778;BME280;23615;51.506;7.678;2023-01-28T08:45:18;101380.41;;;1.40;84.39
37778;BME280;23615;51.506;7.678;2023-01-28T08:47:51;101383.00;;;1.31;83.30
37778;BME280;23615;51.506;7.678;2023-01-28T08:50:17;101388.91;;;1.23;82.75
37778;BME280;23615;51.506;7.678;2023-01-28T08:52:43;101391.78;;;1.20;82.59
37778;BME280;23615;51.506;7.678;2023-01-28T08:55:10;101407.94;;;1.16;82.54
37778;BME280;23615;51.506;7.678;2023-01-28T08:57:35;101407.00;;;1.17;83.21
37778;BME280;23615;51.506;7.678;2023-01-28T09:00:01;101396.19;;;1.20;83.13
37778;BME280;23615;51.506;7.678;2023-01-28T09:02:26;101402.09;;;1.33;83.29
37778;BME280;23615;51.506;7.678;2023-01-28T09:04:52;101409.28;;;1.31;82.87
37778;BME280;23615;51.506;7.678;2023-01-28T09:07:17;101425.19;;;1.29;82.95
37778;BME280;23615;51.506;7.678;2023-01-28T09:09:42;101433.91;;;1.30;83.49
37778;BME280;23615;51.506;7.678;2023-01-28T09:12:08;101437.06;;;1.24;83.88
37778;BME280;23615;51.506;7.678;2023-01-28T09:14:35;101426.22;;;1.17;84.16
37778;BME280;23615;51.506;7.678;2023-01-28T09:17:00;101416.41;;;1.19;84.42
37778;BME280;23615;51.506;7.678;2023-01-28T09:19:25;101434.03;;;1.28;83.67
37778;BME280;23615;51.506;7.678;2023-01-28T09:21:51;101431.66;;;1.25;82.84
37778;BME280;23615;51.506;7.678;2023-01-28T09:24:16;101428.47;;;1.22;81.70
37778;BME280;23615;51.506;7.678;2023-01-28T09:26:43;101426.91;;;1.19;80.52
37778;BME280;23615;51.506;7.678;2023-01-28T09:29:09;101428.44;;;1.01;80.58
37778;BME280;23615;51.506;7.678;2023-01-28T09:31:34;101428.38;;;1.12;80.62
37778;BME280;23615;51.506;7.678;2023-01-28T09:33:59;101425.50;;;1.15;80.81
37778;BME280;23615;51.506;7.678;2023-01-28T09:36:25;101442.19;;;1.25;81.25
37778;BME280;23615;51.506;7.678;2023-01-28T09:38:50;101442.06;;;1.27;81.33
37778;BME280;23615;51.506;7.678;2023-01-28T09:41:23;101443.50;;;1.20;81.51
37778;BME280;23615;51.506;7.678;2023-01-28T09:44:05;101452.94;;;1.22;81.47
37778;BME280;23615;51.506;7.678;2023-01-28T09:46:37;101459.03;;;1.23;82.17
37778;BME280;23615;51.506;7.678;2023-01-28T09:49:13;101460.47;;;1.27;81.92
37778;BME280;23615;51.506;7.678;2023-01-28T09:51:42;101450.78;;;1.27;81.56
37778;BME280;23615;51.506;7.678;2023-01-28T09:54:32;101449.47;;;1.22;81.01
37778;BME280;23615;51.506;7.678;2023-01-28T09:57:06;101456.53;;;1.21;81.49
37778;BME280;23615;51.506;7.678;2023-01-28T09:59:36;101454.38;;;1.26;81.96
37778;BME280;23615;51.506;7.678;2023-01-28T10:05:21;101462.50;;;1.44;81.71
37778;BME280;23615;51.506;7.678;2023-01-28T10:10:47;101467.13;;;1.52;81.45
37778;BME280;23615;51.506;7.678;2023-01-28T10:13:42;101450.50;;;1.51;81.46
37778;BME280;23615;51.506;7.678;2023-01-28T10:16:19;101454.94;;;1.50;81.22
37778;BME280;23615;51.506;7.678;2023-01-28T10:18:51;101442.09;;;1.57;80.90
37778;BME280;23615;51.506;7.678;2023-01-28T10:21:23;101440.16;;;1.59;80.63
37778;BME280;23615;51.506;7.678;2023-01-28T10:23:58;101443.22;;;1.64;80.67
37778;BME280;23615;51.506;7.678;2023-01-28T10:26:32;101433.66;;;1.54;80.61
37778;BME280;23615;51.506;7.678;2023-01-28T10:29:03;101435.56;;;1.52;81.03
37778;BME280;23615;51.506;7.678;2023-01-28T10:31:34;101432.09;;;1.51;80.97
37778;BME280;23615;51.506;7.678;2023-01-28T10:34:00;101427.72;;;1.61;80.83
37778;BME280;23615;51.506;7.678;2023-01-28T10:36:26;101429.22;;;1.54;78.31
37778;BME280;23615;51.506;7.678;2023-01-28T10:38:53;101419.13;;;1.59;77.58
37778;BME280;23615;51.506;7.678;2023-01-28T10:41:20;101422.31;;;1.32;77.54
37778;BME280;23615;51.506;7.678;2023-01-28T10:43:47;101420.44;;;1.23;79.02
37778;BME280;23615;51.506;7.678;2023-01-28T10:46:22;101418.72;;;1.33;79.54
37778;BME280;23615;51.506;7.678;2023-01-28T10:49:12;101443.81;;;1.47;80.07
37778;BME280;23615;51.506;7.678;2023-01-28T10:51:41;101439.53;;;1.46;80.13
37778;BME280;23615;51.506;7.678;2023-01-28T10:54:33;101434.25;;;1.46;80.23
37778;BME280;23615;51.506;7.678;2023-01-28T10:57:01;101432.28;;;1.38;79.57
37778;BME280;23615;51.506;7.678;2023-01-28T10:59:29;101441.84;;;1.19;79.86
37778;BME280;23615;51.506;7.678;2023-01-28T11:01:57;101438.00;;;1.23;80.35
37778;BME280;23615;51.506;7.678;2023-01-28T11:04:34;101441.59;;;1.22;81.03
37778;BME280;23615;51.506;7.678;2023-01-28T11:07:05;101451.59;;;1.28;81.04
37778;BME280;23615;51.506;7.678;2023-01-28T11:09:36;101461.16;;;1.29;80.59
37778;BME280;23615;51.506;7.678;2023-01-28T11:12:17;101464.44;;;1.42;79.89
37778;BME280;23615;51.506;7.678;2023-01-28T11:15:01;101457.97;;;1.25;78.69
37778;BME280;23615;51.506;7.678;2023-01-28T11:17:30;101467.13;;;1.31;79.85
37778;BME280;23615;51.506;7.678;2023-01-28T11:19:58;101470.00;;;1.28;80.59
37778;BME280;23615;51.506;7.678;2023-01-28T11:22:34;101468.06;;;1.50;80.16
37778;BME280;23615;51.506;7.678;2023-01-28T11:25:02;101472.50;;;1.29;79.84
37778;BME280;23615;51.506;7.678;2023-01-28T11:27:30;101471.28;;;1.33;78.31
37778;BME280;23615;51.506;7.678;2023-01-28T11:30:00;101478.16;;;1.25;79.90
37778;BME280;23615;51.506;7.678;2023-01-28T11:32:29;101475.19;;;1.39;80.08
37778;BME280;23615;51.506;7.678;2023-01-28T11:34:55;101470.69;;;1.30;79.55
37778;BME280;23615;51.506;7.678;2023-01-28T11:37:22;101472.81;;;1.15;79.88
37778;BME280;23615;51.506;7.678;2023-01-28T11:39:48;101459.63;;;1.26;80.45
37778;BME280;23615;51.506;7.678;2023-01-28T11:42:18;101457.31;;;1.33;80.47
37778;BME280;23615;51.506;7.678;2023-01-28T11:44:45;101447.38;;;1.36;80.24
37778;BME280;23615;51.506;7.678;2023-01-28T11:47:42;101447.16;;;1.49;79.41
37778;BME280;23615;51.506;7.678;2023-01-28T11:50:24;101447.22;;;1.38;79.36
37778;BME280;23615;51.506;7.678;2023-01-28T11:56:06;101439.09;;;1.41;79.78
37778;BME280;23615;51.506;7.678;2023-01-28T11:59:15;101430.19;;;1.53;79.15
37778;BME280;23615;51.506;7.678;2023-01-28T12:09:57;101426.34;;;1.67;79.38
37778;BME280;23615;51.506;7.678;2023-01-28T12:12:53;101422.19;;;1.64;78.73
37778;BME280;23615;51.506;7.678;2023-01-28T12:15:48;101436.16;;;1.65;79.05
37778;BME280;23615;51.506;7.678;2023-01-28T12:18:25;101425.53;;;1.66;78.92
37778;BME280;23615;51.506;7.678;2023-01-28T12:23:58;101417.00;;;1.83;78.49
37778;BME280;23615;51.506;7.678;2023-01-28T12:29:43;101407.44;;;1.73;78.64
37778;BME280;23615;51.506;7.678;2023-01-28T12:32:51;101397.28;;;1.68;79.59
37778;BME280;23615;51.506;7.678;2023-01-28T12:35:28;101384.31;;;1.76;79.72
37778;BME280;23615;51.506;7.678;2023-01-28T12:38:08;101379.34;;;1.83;79.69
37778;BME280;23615;51.506;7.678;2023-01-28T12:43:31;101375.78;;;1.94;79.67
37778;BME280;23615;51.506;7.678;2023-01-28T12:46:04;101383.13;;;1.90;78.22
37778;BME280;23615;51.506;7.678;2023-01-28T12:48:46;101368.84;;;1.93;77.77
37778;BME280;23615;51.506;7.678;2023-01-28T12:51:18;101349.44;;;1.94;78.05
37778;BME280;23615;51.506;7.678;2023-01-28T12:56:18;101325.06;;;1.92;77.64
37778;BME280;23615;51.506;7.678;2023-01-28T12:58:53;101304.84;;;1.92;77.75
37778;BME280;23615;51.506;7.678;2023-01-28T13:01:29;101292.41;;;1.94;78.83
37778;BME280;23615;51.506;7.678;2023-01-28T13:04:04;101302.94;;;2.04;79.35
37778;BME280;23615;51.506;7.678;2023-01-28T13:06:48;101297.81;;;2.12;79.55
37778;BME280;23615;51.506;7.678;2023-01-28T13:09:19;101289.50;;;2.07;79.72
37778;BME280;23615;51.506;7.678;2023-01-28T13:11:47;101280.66;;;2.08;79.97
37778;BME280;23615;51.506;7.678;2023-01-28T13:14:15;101279.66;;;2.38;77.32
37778;BME280;23615;51.506;7.678;2023-01-28T13:16:41;101286.75;;;2.28;77.64
37778;BME280;23615;51.506;7.678;2023-01-28T13:21:44;101327.19;;;2.55;79.57
37778;BME280;23615;51.506;7.678;2023-01-28T13:26:42;101313.50;;;2.52;78.76
37778;BME280;23615;51.506;7.678;2023-01-28T13:31:45;101316.81;;;2.35;79.90
37778;BME280;23615;51.506;7.678;2023-01-28T13:34:27;101330.13;;;2.52;78.49
37778;BME280;23615;51.506;7.678;2023-01-28T13:36:54;101324.44;;;2.47;77.02
37778;BME280;23615;51.506;7.678;2023-01-28T13:39:23;101326.41;;;2.55;77.42
37778;BME280;23615;51.506;7.678;2023-01-28T13:41:53;101319.97;;;2.67;77.07
37778;BME280;23615;51.506;7.678;2023-01-28T13:46:51;101347.16;;;2.39;76.75
37778;BME280;23615;51.506;7.678;2023-01-28T13:49:31;101341.22;;;2.17;78.03
37778;BME280;23615;51.506;7.678;2023-01-28T13:52:28;101347.84;;;2.31;76.92
37778;BME280;23615;51.506;7.678;2023-01-28T13:55:03;101354.78;;;2.22;76.83
37778;BME280;23615;51.506;7.678;2023-01-28T14:09:22;101378.34;;;2.24;77.33
37778;BME280;23615;51.506;7.678;2023-01-28T14:17:53;101369.19;;;2.09;76.39
37778;BME280;23615;51.506;7.678;2023-01-28T14:20:37;101374.69;;;2.06;77.28
37778;BME280;23615;51.506;7.678;2023-01-28T14:23:14;101365.59;;;2.58;75.00